createdAt,value
2022-12-19T00:02:07.667Z,49.95
2022-12-19T00:04:36.300Z,52.22
2022-12-19T00:07:10.024Z,51.20
2022-12-19T00:09:39.491Z,51.05
2022-12-19T00:12:06.831Z,55.95
2022-12-19T00:14:35.886Z,53.22
2022-12-19T00:17:03.098Z,54.25
2022-12-19T00:19:54.524Z,47.70
2022-12-19T00:22:25.273Z,50.20
2022-12-19T00:24:52.287Z,50.13
2022-12-19T00:27:19.475Z,51.78
2022-12-19T00:29:46.571Z,52.28
2022-12-19T00:32:16.772Z,58.53
2022-12-19T00:34:44.027Z,54.20
2022-12-19T00:39:49.681Z,49.22
2022-12-19T00:42:16.866Z,53.53
2022-12-19T00:44:45.441Z,49.80
2022-12-19T00:47:12.884Z,51.38
2022-12-19T00:49:39.739Z,58.95
2022-12-19T00:52:09.096Z,44.47
2022-12-19T00:54:36.496Z,44.78
2022-12-19T00:57:05.541Z,52.22
2022-12-19T00:59:35.533Z,54.10
2022-12-19T01:02:03.623Z,45.20
2022-12-19T01:04:32.640Z,45.65
2022-12-19T01:07:09.554Z,48.60
2022-12-19T01:09:41.202Z,46.53
2022-12-19T01:12:30.539Z,48.03
2022-12-19T01:15:04.469Z,51.45
2022-12-19T01:17:44.209Z,44.65
2022-12-19T01:20:14.663Z,47.88
2022-12-19T01:22:44.736Z,45.78
2022-12-19T01:25:13.611Z,45.17
2022-12-19T01:27:47.556Z,49.33
2022-12-19T01:30:14.566Z,42.92
2022-12-19T01:35:13.412Z,41.63
2022-12-19T01:37:50.404Z,39.15
2022-12-19T01:40:17.471Z,43.92
2022-12-19T01:42:48.399Z,41.65
2022-12-19T01:45:33.762Z,48.17
2022-12-19T01:48:15.513Z,45.42
2022-12-19T01:51:00.973Z,46.40
2022-12-19T01:53:49.279Z,44.53
2022-12-19T01:56:19.639Z,41.88
2022-12-19T01:58:56.579Z,43.08
2022-12-19T02:01:33.212Z,44.63
2022-12-19T02:04:03.610Z,50.17
2022-12-19T02:06:31.370Z,39.33
2022-12-19T02:08:58.628Z,43.30
2022-12-19T02:11:25.547Z,43.88
2022-12-19T02:13:54.114Z,44.40
2022-12-19T02:16:31.187Z,52.13
2022-12-19T02:19:09.797Z,42.28
2022-12-19T02:21:55.965Z,49.35
2022-12-19T02:25:00.049Z,45.42
2022-12-19T02:27:42.191Z,42.90
2022-12-19T02:30:17.725Z,46.72
2022-12-19T02:33:00.071Z,43.10
2022-12-19T02:35:34.449Z,49.53
2022-12-19T02:38:13.489Z,49.15
2022-12-19T02:40:50.049Z,44.28
2022-12-19T02:43:24.104Z,49.08
2022-12-19T02:45:54.818Z,43.50
2022-12-19T02:48:24.396Z,46.88
2022-12-19T02:50:53.823Z,43.42
2022-12-19T02:56:11.275Z,34.22
2022-12-19T02:58:53.412Z,53.40
2022-12-19T03:01:40.240Z,50.90
2022-12-19T03:04:17.534Z,41.30
2022-12-19T03:06:53.947Z,45.45
2022-12-19T03:09:30.397Z,40.90
2022-12-19T03:12:03.380Z,38.10
2022-12-19T03:14:33.011Z,41.42
2022-12-19T03:17:08.191Z,45.35
2022-12-19T03:19:39.383Z,44.42
2022-12-19T03:22:08.086Z,43.58
2022-12-19T03:24:38.703Z,43.45
2022-12-19T03:27:13.530Z,42.75
2022-12-19T03:29:50.564Z,41.65
2022-12-19T03:32:23.217Z,47.35
2022-12-19T03:34:57.218Z,45.00
2022-12-19T03:37:28.727Z,39.53
2022-12-19T03:40:00.229Z,37.38
2022-12-19T03:42:53.279Z,41.67
2022-12-19T03:45:29.341Z,50.30
2022-12-19T03:48:04.191Z,40.80
2022-12-19T03:50:45.877Z,36.45
2022-12-19T03:53:28.797Z,44.30
2022-12-19T03:56:08.103Z,61.00
2022-12-19T03:58:45.537Z,86.78
2022-12-19T04:01:12.668Z,46.60
2022-12-19T04:03:42.077Z,54.17
2022-12-19T04:06:14.964Z,55.53
2022-12-19T04:08:45.634Z,43.60
2022-12-19T04:11:18.869Z,45.55
2022-12-19T04:13:51.633Z,40.90
2022-12-19T04:16:23.912Z,43.47
2022-12-19T04:19:05.663Z,42.72
2022-12-19T04:21:47.080Z,44.22
2022-12-19T04:24:18.811Z,50.10
2022-12-19T04:26:50.512Z,39.22
2022-12-19T04:29:20.133Z,49.55
2022-12-19T04:31:50.922Z,41.97
2022-12-19T04:34:27.924Z,48.67
2022-12-19T04:36:56.289Z,54.10
2022-12-19T04:39:26.265Z,44.35
2022-12-19T04:41:54.511Z,46.80
2022-12-19T04:44:24.038Z,63.95
2022-12-19T04:46:53.353Z,45.10
2022-12-19T04:49:20.739Z,51.78
2022-12-19T04:51:49.151Z,42.35
2022-12-19T04:54:22.797Z,32.72
2022-12-19T04:56:49.870Z,43.95
2022-12-19T04:59:22.730Z,53.42
2022-12-19T05:01:50.097Z,33.83
2022-12-19T05:04:18.811Z,37.85
2022-12-19T05:06:46.457Z,44.72
2022-12-19T05:10:12.074Z,37.95
2022-12-19T05:12:41.158Z,28.63
2022-12-19T05:15:12.219Z,38.35
2022-12-19T05:20:08.086Z,36.45
2022-12-19T05:22:37.977Z,33.83
2022-12-19T05:25:10.345Z,39.38
2022-12-19T05:27:39.630Z,47.25
2022-12-19T05:30:12.636Z,39.50
2022-12-19T05:32:39.628Z,33.70
2022-12-19T05:35:09.594Z,47.00
2022-12-19T05:37:36.504Z,39.35
2022-12-19T05:40:11.637Z,45.63
2022-12-19T05:42:44.633Z,51.20
2022-12-19T05:45:12.162Z,69.93
2022-12-19T05:47:39.161Z,69.82
2022-12-19T05:50:09.354Z,66.63
2022-12-19T05:52:36.955Z,46.80
2022-12-19T05:55:05.480Z,45.83
2022-12-19T05:57:34.234Z,47.67
2022-12-19T06:00:04.747Z,48.53
2022-12-19T06:02:32.792Z,48.40
2022-12-19T06:05:00.303Z,58.35
2022-12-19T06:07:27.131Z,59.22
2022-12-19T06:09:54.373Z,67.13
2022-12-19T06:12:21.373Z,71.15
2022-12-19T06:14:49.973Z,58.75
2022-12-19T06:17:16.999Z,69.87
2022-12-19T06:19:47.029Z,59.17
2022-12-19T06:22:13.962Z,63.47
2022-12-19T06:24:41.468Z,56.30
2022-12-19T06:27:08.434Z,56.90
2022-12-19T06:29:38.050Z,47.22
2022-12-19T06:32:09.068Z,55.72
2022-12-19T06:37:23.067Z,39.38
2022-12-19T06:39:50.625Z,40.13
2022-12-19T06:42:23.642Z,34.22
2022-12-19T06:44:52.068Z,36.08
2022-12-19T06:47:26.852Z,46.25
2022-12-19T06:49:58.214Z,42.92
2022-12-19T06:52:27.333Z,43.88
2022-12-19T06:54:56.356Z,44.50
2022-12-19T06:57:23.212Z,40.42
2022-12-19T06:59:50.520Z,44.88
2022-12-19T07:02:25.927Z,37.80
2022-12-19T07:05:01.845Z,40.92
2022-12-19T07:07:29.170Z,39.47
2022-12-19T07:09:56.467Z,38.17
2022-12-19T07:12:23.364Z,34.65
2022-12-19T07:14:53.566Z,37.15
2022-12-19T07:17:25.895Z,37.17
2022-12-19T07:19:57.190Z,32.58
2022-12-19T07:22:27.079Z,39.95
2022-12-19T07:24:57.586Z,37.17
2022-12-19T07:27:27.314Z,39.83
2022-12-19T07:29:59.033Z,43.25
2022-12-19T07:32:29.205Z,34.75
2022-12-19T07:35:00.565Z,37.53
2022-12-19T07:37:27.548Z,42.25
2022-12-19T07:39:57.313Z,38.80
2022-12-19T07:42:32.135Z,31.58
2022-12-19T07:44:59.834Z,37.40
2022-12-19T07:47:31.118Z,34.13
2022-12-19T07:50:05.662Z,44.53
2022-12-19T07:52:34.797Z,39.38
2022-12-19T07:55:02.338Z,45.88
2022-12-19T07:57:29.474Z,42.00
2022-12-19T07:59:58.137Z,36.38
2022-12-19T08:02:28.421Z,44.85
2022-12-19T08:04:59.883Z,36.30
2022-12-19T08:07:28.861Z,44.92
2022-12-19T08:09:56.154Z,45.42
2022-12-19T08:12:26.990Z,32.35
2022-12-19T08:14:57.319Z,37.05
2022-12-19T08:17:24.515Z,28.77
2022-12-19T08:19:52.005Z,33.58
2022-12-19T08:22:21.425Z,36.35
2022-12-19T08:24:50.342Z,29.63
2022-12-19T08:27:19.160Z,33.65
2022-12-19T08:29:47.259Z,30.50
2022-12-19T08:32:20.779Z,30.85
2022-12-19T08:34:49.507Z,28.90
2022-12-19T08:37:16.640Z,39.45
2022-12-19T08:39:46.426Z,31.67
2022-12-19T08:42:14.471Z,37.88
2022-12-19T08:44:41.676Z,17.08
2022-12-19T08:47:09.524Z,33.10
2022-12-19T08:49:41.809Z,30.65
2022-12-19T08:52:13.775Z,33.80
2022-12-19T08:54:41.008Z,43.17
2022-12-19T08:57:12.347Z,37.53
2022-12-19T08:59:41.852Z,36.80
2022-12-19T09:02:10.887Z,21.67
2022-12-19T09:06:00.037Z,31.87
2022-12-19T09:07:25.355Z,25.98
2022-12-19T09:09:54.132Z,31.17
2022-12-19T09:12:22.465Z,29.25
2022-12-19T09:14:49.906Z,33.08
2022-12-19T09:17:16.985Z,33.67
2022-12-19T09:19:45.497Z,32.97
2022-12-19T09:22:18.048Z,38.08
2022-12-19T09:24:50.509Z,31.33
2022-12-19T09:27:24.479Z,37.38
2022-12-19T09:29:59.081Z,29.77
2022-12-19T09:32:26.905Z,32.17
2022-12-19T09:34:54.111Z,30.50
2022-12-19T09:37:32.195Z,31.73
2022-12-19T09:39:59.518Z,33.42
2022-12-19T09:43:01.994Z,30.67
2022-12-19T09:45:40.443Z,30.63
2022-12-19T09:48:17.334Z,38.85
2022-12-19T09:51:10.089Z,31.80
2022-12-19T09:53:54.258Z,31.08
2022-12-19T09:56:46.232Z,31.40
2022-12-19T09:59:39.906Z,33.35
2022-12-19T10:02:23.902Z,23.80
2022-12-19T10:05:12.472Z,35.72
2022-12-19T10:08:07.515Z,26.40
2022-12-19T10:12:36.393Z,32.72
2022-12-19T10:14:01.758Z,33.85
2022-12-19T10:16:41.674Z,27.17
2022-12-19T10:19:12.314Z,35.72
2022-12-19T10:25:09.290Z,31.15
2022-12-19T10:27:59.698Z,31.65
2022-12-19T10:30:32.421Z,30.98
2022-12-19T10:33:20.750Z,29.00
2022-12-19T10:36:09.593Z,32.00
2022-12-19T10:38:46.796Z,33.05
2022-12-19T10:41:22.445Z,29.17
2022-12-19T10:43:59.220Z,29.27
2022-12-19T10:46:37.416Z,26.42
2022-12-19T10:49:19.200Z,33.88
2022-12-19T10:51:56.942Z,26.55
2022-12-19T10:54:33.397Z,30.48
2022-12-19T10:57:18.685Z,32.55
2022-12-19T11:00:07.257Z,30.30
2022-12-19T11:02:44.593Z,27.80
2022-12-19T11:05:40.291Z,24.00
2022-12-19T11:08:18.955Z,29.05
2022-12-19T11:11:57.680Z,28.98
2022-12-19T11:19:14.332Z,28.67
2022-12-19T11:22:14.309Z,26.83
2022-12-19T11:28:43.336Z,32.85
2022-12-19T11:30:05.170Z,36.30
2022-12-19T11:30:43.170Z,29.33
2022-12-19T11:30:47.660Z,28.75
2022-12-19T11:34:06.838Z,29.15
2022-12-19T11:36:39.743Z,27.75
2022-12-19T11:39:14.305Z,31.60
2022-12-19T11:42:10.475Z,28.92
2022-12-19T11:44:45.228Z,32.20
2022-12-19T11:47:25.554Z,27.80
2022-12-19T11:49:59.716Z,27.08
2022-12-19T11:55:39.809Z,30.33
2022-12-19T11:58:10.276Z,25.08
2022-12-19T12:00:45.480Z,26.92
2022-12-19T12:03:30.541Z,29.58
2022-12-19T12:05:58.528Z,29.92
2022-12-19T12:12:17.373Z,29.83
2022-12-19T12:19:05.191Z,27.00
2022-12-19T12:26:57.709Z,23.52
2022-12-19T12:31:00.412Z,24.52
2022-12-19T12:31:22.342Z,29.40
2022-12-19T12:32:04.826Z,27.98
2022-12-19T12:32:06.160Z,30.35
2022-12-19T12:32:06.163Z,33.85
2022-12-19T12:35:34.425Z,33.28
2022-12-19T12:38:52.222Z,27.55
2022-12-19T12:41:51.109Z,23.50
2022-12-19T12:44:18.242Z,28.08
2022-12-19T12:47:15.033Z,26.58
2022-12-19T12:50:03.454Z,27.85
2022-12-19T12:52:35.585Z,24.60
2022-12-19T12:55:04.794Z,30.98
2022-12-19T12:57:39.917Z,22.55
2022-12-19T13:00:19.667Z,27.95
2022-12-19T13:02:52.716Z,29.60
2022-12-19T13:05:39.402Z,30.95
2022-12-19T13:08:26.031Z,26.40
2022-12-19T13:10:57.133Z,26.60
2022-12-19T13:13:55.062Z,27.55
2022-12-19T13:16:55.798Z,24.63
2022-12-19T13:19:30.126Z,27.45
2022-12-19T13:22:21.830Z,24.30
2022-12-19T13:24:51.427Z,24.27
2022-12-19T13:27:48.390Z,26.23
2022-12-19T13:30:18.362Z,28.98
2022-12-19T13:33:12.105Z,23.42
2022-12-19T13:37:32.175Z,23.98
2022-12-19T13:39:54.507Z,23.05
2022-12-19T13:41:48.171Z,27.55
2022-12-19T13:44:22.452Z,21.00
2022-12-19T13:46:54.957Z,22.52
2022-12-19T13:49:30.441Z,28.23
2022-12-19T13:52:05.270Z,24.20
2022-12-19T13:54:38.182Z,23.73
2022-12-19T13:57:22.016Z,22.83
2022-12-19T13:59:59.679Z,29.27
2022-12-19T14:02:32.595Z,23.02
2022-12-19T14:05:22.356Z,29.17
2022-12-19T14:08:15.948Z,26.83
2022-12-19T14:11:39.486Z,23.08
2022-12-19T14:14:17.739Z,23.63
2022-12-19T14:16:52.992Z,22.23
2022-12-19T14:19:24.950Z,26.55
2022-12-19T14:22:05.173Z,34.70
2022-12-19T14:24:41.450Z,27.80
2022-12-19T14:28:18.783Z,33.78
2022-12-19T14:30:30.486Z,24.52
2022-12-19T14:33:43.818Z,27.17
2022-12-19T14:36:12.307Z,27.33
2022-12-19T14:39:23.966Z,29.35
2022-12-19T14:42:00.877Z,26.15
2022-12-19T14:52:25.274Z,29.00
2022-12-19T14:54:13.499Z,32.05
2022-12-19T14:54:15.329Z,31.75
2022-12-19T14:54:30.698Z,34.78
2022-12-19T14:56:43.768Z,29.75
2022-12-19T14:58:58.524Z,32.10
2022-12-19T15:01:28.008Z,29.83
2022-12-19T15:04:52.199Z,27.52
2022-12-19T15:07:07.808Z,34.13
2022-12-19T15:11:08.239Z,33.83
2022-12-19T15:14:54.988Z,35.40
2022-12-19T15:15:46.206Z,39.25
2022-12-19T15:18:20.573Z,34.03
2022-12-19T15:20:48.073Z,46.03
2022-12-19T15:23:19.933Z,40.38
2022-12-19T15:26:08.775Z,34.05
2022-12-19T15:28:41.139Z,47.15
2022-12-19T15:31:24.406Z,37.60
2022-12-19T15:34:33.030Z,38.70
2022-12-19T15:36:46.535Z,35.97
2022-12-19T15:39:15.085Z,44.25
2022-12-19T15:41:44.564Z,39.88
2022-12-19T15:44:16.560Z,92.05
2022-12-19T15:46:49.078Z,63.05
2022-12-19T15:49:18.202Z,49.55
2022-12-19T15:51:46.208Z,48.50
2022-12-19T15:57:01.044Z,41.00
2022-12-19T15:59:37.477Z,42.65
2022-12-19T16:02:23.248Z,34.60
2022-12-19T16:04:52.303Z,40.85
2022-12-19T16:07:25.284Z,34.08
2022-12-19T16:09:52.488Z,29.63
2022-12-19T16:12:25.139Z,38.65
2022-12-19T16:14:56.767Z,32.70
2022-12-19T16:17:32.136Z,33.50
2022-12-19T16:19:59.161Z,33.65
2022-12-19T16:22:33.103Z,40.10
2022-12-19T16:25:00.006Z,41.13
2022-12-19T16:27:33.936Z,39.53
2022-12-19T16:30:18.642Z,46.83
2022-12-19T16:32:50.725Z,54.25
2022-12-19T16:35:40.218Z,52.40
2022-12-19T16:38:09.957Z,59.78
2022-12-19T16:40:39.687Z,41.55
2022-12-19T16:43:15.568Z,36.60
2022-12-19T16:45:45.521Z,36.95
2022-12-19T16:48:20.645Z,35.35
2022-12-19T16:50:49.261Z,39.97
2022-12-19T16:53:20.003Z,46.20
2022-12-19T16:55:49.024Z,44.20
2022-12-19T16:58:21.560Z,44.72
2022-12-19T17:00:51.896Z,33.22
2022-12-19T17:03:28.385Z,35.05
2022-12-19T17:05:56.002Z,44.00
2022-12-19T17:08:23.557Z,37.30
2022-12-19T17:10:50.653Z,34.60
2022-12-19T17:13:17.961Z,42.60
2022-12-19T17:15:48.614Z,38.85
2022-12-19T17:18:33.252Z,31.80
2022-12-19T17:21:00.265Z,36.63
2022-12-19T17:23:31.016Z,38.60
2022-12-19T17:26:00.338Z,40.70
2022-12-19T17:28:28.713Z,44.28
2022-12-19T17:30:58.950Z,51.10
2022-12-19T17:33:46.615Z,46.88
2022-12-19T17:36:18.397Z,42.15
2022-12-19T17:38:48.600Z,33.03
2022-12-19T17:41:18.882Z,36.55
2022-12-19T17:43:46.437Z,29.10
2022-12-19T17:46:18.290Z,28.80
2022-12-19T17:51:23.297Z,28.70
2022-12-19T17:53:53.123Z,33.53
2022-12-19T17:56:20.883Z,30.30
2022-12-19T17:58:48.993Z,30.58
2022-12-19T18:01:20.278Z,30.33
2022-12-19T18:03:50.980Z,38.00
2022-12-19T18:06:18.564Z,41.15
2022-12-19T18:08:45.905Z,38.75
2022-12-19T18:11:18.809Z,34.83
2022-12-19T18:13:52.892Z,29.10
2022-12-19T18:16:24.042Z,46.88
2022-12-19T18:18:52.852Z,38.90
2022-12-19T18:21:22.136Z,39.03
2022-12-19T18:23:49.734Z,39.08
2022-12-19T18:26:18.913Z,31.63
2022-12-19T18:28:46.083Z,27.52
2022-12-19T18:31:18.254Z,27.05
2022-12-19T18:33:47.553Z,30.05
2022-12-19T18:36:22.277Z,31.05
2022-12-19T18:38:53.898Z,29.35
2022-12-19T18:41:26.224Z,29.50
2022-12-19T18:44:00.032Z,26.83
2022-12-19T18:46:28.482Z,26.00
2022-12-19T18:48:56.952Z,35.42
2022-12-19T18:51:27.923Z,39.25
2022-12-19T18:54:02.310Z,30.23
2022-12-19T18:56:29.993Z,23.58
2022-12-19T18:58:58.524Z,26.67
2022-12-19T19:01:46.707Z,36.25
2022-12-19T19:04:17.851Z,39.03
2022-12-19T19:06:51.486Z,48.40
2022-12-19T19:09:20.722Z,38.10
2022-12-19T19:11:47.674Z,30.73
2022-12-19T19:14:17.863Z,37.40
2022-12-19T19:16:47.996Z,26.85
2022-12-19T19:19:20.131Z,27.80
2022-12-19T19:21:54.010Z,31.00
2022-12-19T19:24:22.682Z,28.48
2022-12-19T19:26:52.117Z,31.65
2022-12-19T19:29:19.794Z,26.80
2022-12-19T19:31:48.731Z,26.48
2022-12-19T19:34:22.085Z,25.85
2022-12-19T19:36:54.912Z,28.33
2022-12-19T19:39:23.273Z,25.17
2022-12-19T19:41:53.779Z,24.42
2022-12-19T19:44:21.016Z,23.33
2022-12-19T19:46:51.387Z,28.15
2022-12-19T19:49:19.989Z,31.83
2022-12-19T19:51:52.376Z,36.33
2022-12-19T19:54:25.903Z,32.47
2022-12-19T19:56:53.035Z,28.35
2022-12-19T19:59:21.411Z,31.95
2022-12-19T20:01:54.324Z,25.65
2022-12-19T20:04:31.212Z,30.02
2022-12-19T20:06:59.563Z,27.35
2022-12-19T20:09:29.656Z,26.55
2022-12-19T20:11:57.314Z,26.13
2022-12-19T20:14:26.595Z,27.38
2022-12-19T20:16:56.560Z,25.45
2022-12-19T20:19:27.369Z,25.55
2022-12-19T20:21:57.472Z,19.63
2022-12-19T20:24:30.835Z,21.15
2022-12-19T20:27:00.998Z,26.25
2022-12-19T20:29:30.994Z,28.92
2022-12-19T20:31:58.091Z,27.48
2022-12-19T20:34:27.750Z,33.95
2022-12-19T20:36:57.569Z,28.20
2022-12-19T20:39:27.937Z,22.95
2022-12-19T20:41:57.836Z,26.42
2022-12-19T20:44:27.901Z,25.80
2022-12-19T20:46:55.857Z,21.30
2022-12-19T20:49:23.810Z,21.63
2022-12-19T20:51:50.849Z,21.30
2022-12-19T20:54:21.878Z,19.80
2022-12-19T20:56:49.266Z,18.58
2022-12-19T20:59:17.864Z,28.90
2022-12-19T21:01:47.155Z,21.02
2022-12-19T21:04:15.646Z,19.88
2022-12-19T21:06:47.600Z,24.20
2022-12-19T21:09:15.368Z,22.08
2022-12-19T21:11:42.364Z,27.08
2022-12-19T21:14:14.883Z,28.92
2022-12-19T21:16:46.346Z,25.95
2022-12-19T21:19:13.871Z,25.40
2022-12-19T21:21:46.476Z,29.08
2022-12-19T21:24:13.959Z,33.88
2022-12-19T21:26:45.141Z,28.85
2022-12-19T21:29:12.851Z,31.55
2022-12-19T21:31:42.965Z,30.27
2022-12-19T21:34:13.999Z,29.83
2022-12-19T21:36:40.838Z,43.60
2022-12-19T21:41:39.596Z,26.48
2022-12-19T21:44:09.359Z,17.58
2022-12-19T21:46:37.470Z,19.92
2022-12-19T21:49:08.731Z,23.92
2022-12-19T21:51:36.990Z,17.50
2022-12-19T21:54:05.068Z,22.48
2022-12-19T21:56:34.457Z,18.60
2022-12-19T21:59:04.854Z,24.77
2022-12-19T22:01:32.655Z,18.17
2022-12-19T22:04:06.266Z,19.90
2022-12-19T22:06:41.516Z,18.88
2022-12-19T22:09:15.398Z,25.92
2022-12-19T22:11:46.032Z,22.30
2022-12-19T22:14:16.444Z,25.45
2022-12-19T22:16:43.729Z,31.15
2022-12-19T22:19:13.999Z,35.58
2022-12-19T22:21:42.387Z,29.20
2022-12-19T22:24:11.847Z,27.15
2022-12-19T22:26:39.308Z,22.45
2022-12-19T22:29:08.388Z,22.08
2022-12-19T22:31:38.569Z,25.77
2022-12-19T22:34:13.745Z,30.10
2022-12-19T22:36:45.256Z,28.08
2022-12-19T22:41:41.800Z,23.67
2022-12-19T22:46:46.579Z,19.33
2022-12-19T22:49:14.284Z,22.65
2022-12-19T22:51:42.909Z,19.88
2022-12-19T22:54:12.906Z,23.25
2022-12-19T22:56:42.414Z,24.75
2022-12-19T22:59:14.641Z,20.83
2022-12-19T23:01:43.633Z,23.63
2022-12-19T23:04:21.440Z,22.48
2022-12-19T23:06:48.514Z,23.55
2022-12-19T23:09:22.053Z,24.00
2022-12-19T23:11:49.661Z,21.48
2022-12-19T23:14:19.740Z,20.83
2022-12-19T23:16:51.710Z,21.00
2022-12-19T23:19:25.067Z,21.27
2022-12-19T23:21:51.936Z,19.98
2022-12-19T23:24:24.457Z,19.05
2022-12-19T23:26:58.000Z,20.60
2022-12-19T23:29:25.522Z,16.92
2022-12-19T23:31:55.241Z,24.45
2022-12-19T23:34:27.953Z,19.02
2022-12-19T23:37:13.163Z,23.00
2022-12-19T23:39:44.253Z,22.25
2022-12-19T23:42:14.082Z,18.00
2022-12-19T23:44:41.294Z,21.05
2022-12-19T23:47:08.340Z,19.30
2022-12-19T23:49:38.849Z,23.83
2022-12-19T23:54:40.683Z,19.88
2022-12-19T23:57:10.277Z,16.88
2022-12-19T23:59:39.430Z,20.15
